Time;durP1;ratioP1;P1;durP2;ratioP2;P2;SDS_P1;SDS_P2;PMS_P1;PMS_P2;Temp;Humidity;BMP_temperature;BMP_pressure;BME280_temperature;BME280_humidity;BME280_pressure;Samples;Min_cycle;Max_cycle;Signal;HPM_P1;HPM_P2
2021/12/12 00:03:02;;;;;;;75.80;39.08;;;;;;;-2.06;80.39;100877.39;2077038;83;21116;-70
2021/12/12 00:06:17;;;;;;;73.30;38.10;;;;;;;-2.14;80.28;100883.38;2087197;83;21583;-70
2021/12/12 00:09:29;;;;;;;79.55;39.40;;;;;;;-2.21;80.33;100888.48;2083490;83;21094;-68
2021/12/12 00:12:36;;;;;;;77.67;38.60;;;;;;;-2.26;80.41;100880.41;2091276;83;21119;-73
2021/12/12 00:15:40;;;;;;;69.40;38.25;;;;;;;-2.31;80.37;100874.59;2086810;82;21120;-74
2021/12/12 00:18:43;;;;;;;67.65;37.40;;;;;;;-2.38;80.33;100869.24;2091303;83;22414;-68
2021/12/12 00:21:49;;;;;;;79.80;41.73;;;;;;;-2.47;80.22;100867.05;2098391;82;21349;-68
2021/12/12 00:24:51;;;;;;;80.20;39.35;;;;;;;-2.57;80.04;100866.58;2080657;83;21674;-69
2021/12/12 00:27:53;;;;;;;76.70;39.08;;;;;;;-2.72;79.87;100859.44;2092655;82;21076;-68
2021/12/12 00:31:03;;;;;;;78.60;39.03;;;;;;;-2.81;79.98;100855.47;2089627;83;20998;-71
2021/12/12 00:34:06;;;;;;;80.03;38.50;;;;;;;-2.89;80.08;100858.00;2064933;83;21100;-68
2021/12/12 00:37:09;;;;;;;100.07;44.95;;;;;;;-2.98;79.91;100861.81;2091108;83;21478;-68
2021/12/12 00:40:25;;;;;;;93.20;43.25;;;;;;;-3.02;80.06;100857.64;2058087;82;21129;-69
2021/12/12 00:43:34;;;;;;;90.17;42.88;;;;;;;-3.03;80.11;100857.26;2076627;83;21104;-69
2021/12/12 00:46:37;;;;;;;85.15;42.10;;;;;;;-3.09;80.01;100852.31;2091747;81;21071;-69
2021/12/12 00:49:40;;;;;;;86.47;39.67;;;;;;;-3.13;80.08;100854.17;2074835;83;21102;-68
2021/12/12 00:52:44;;;;;;;92.67;42.17;;;;;;;-3.20;80.08;100854.88;2088452;83;21014;-68
2021/12/12 00:55:47;;;;;;;92.05;42.85;;;;;;;-3.24;80.18;100845.97;2060423;83;21033;-68
2021/12/12 00:58:48;;;;;;;82.08;40.43;;;;;;;-3.27;80.16;100853.41;2089618;83;20966;-68
2021/12/12 01:01:52;;;;;;;87.50;41.77;;;;;;;-3.33;80.05;100848.47;2078160;83;21120;-72
2021/12/12 01:04:58;;;;;;;87.15;42.10;;;;;;;-3.34;80.07;100854.58;2088041;82;21100;-69
2021/12/12 01:08:00;;;;;;;87.53;42.15;;;;;;;-3.42;79.78;100856.63;2082345;83;21016;-68
2021/12/12 01:11:10;;;;;;;86.32;42.60;;;;;;;-3.52;79.75;100853.56;2083055;83;21154;-68
2021/12/12 01:14:18;;;;;;;84.50;40.85;;;;;;;-3.62;79.73;100862.12;2078527;83;21004;-69
2021/12/12 01:17:30;;;;;;;92.85;43.85;;;;;;;-3.71;79.79;100865.53;2082088;83;21067;-68
2021/12/12 01:20:45;;;;;;;94.05;46.02;;;;;;;-3.79;79.89;100867.56;2085035;83;21088;-68
2021/12/12 01:23:56;;;;;;;104.03;47.17;;;;;;;-3.87;80.05;100876.46;2080260;82;21107;-69
2021/12/12 01:27:00;;;;;;;93.20;45.63;;;;;;;-3.91;80.17;100879.24;2091424;83;20982;-70
2021/12/12 01:30:03;;;;;;;89.35;42.38;;;;;;;-4.05;80.04;100879.73;2080044;82;21575;-68
2021/12/12 01:33:04;;;;;;;96.65;44.42;;;;;;;-4.15;79.87;100883.09;2080656;83;21099;-69
2021/12/12 01:36:33;;;;;;;86.80;42.03;;;;;;;-4.25;79.90;100887.35;2079483;82;21132;-70
2021/12/12 01:39:38;;;;;;;89.60;42.75;;;;;;;-4.36;79.98;100886.45;2080296;82;21175;-69
2021/12/12 01:42:50;;;;;;;91.15;44.27;;;;;;;-4.44;80.09;100879.39;2061759;83;21211;-68
2021/12/12 01:45:56;;;;;;;;;;;;;;;-4.47;80.35;100882.09;2083293;83;21623;-71
2021/12/12 01:49:15;;;;;;;98.05;44.93;;;;;;;-4.42;80.46;100886.22;2082058;80;20243;-68
2021/12/12 01:52:21;;;;;;;91.32;42.50;;;;;;;-4.37;80.58;100889.47;2082902;83;21191;-69
2021/12/12 01:55:30;;;;;;;97.80;43.25;;;;;;;-4.36;80.67;100898.95;2085902;82;21110;-69
2021/12/12 01:58:37;;;;;;;87.67;42.70;;;;;;;-4.34;80.70;100892.41;2083646;83;21568;-69
2021/12/12 02:01:53;;;;;;;88.60;43.23;;;;;;;-4.36;80.80;100886.45;2063559;83;21092;-72
2021/12/12 02:05:02;;;;;;;95.47;43.17;;;;;;;-4.37;80.84;100870.49;2083512;82;21716;-71
2021/12/12 02:08:08;;;;;;;87.57;42.58;;;;;;;-4.42;80.55;100878.88;2088349;82;21101;-68
2021/12/12 02:11:16;;;;;;;90.92;41.77;;;;;;;-4.47;80.53;100874.33;2097963;80;21069;-68
2021/12/12 02:14:20;;;;;;;123.67;46.20;;;;;;;-4.51;80.65;100871.81;2081373;83;21045;-68
2021/12/12 02:17:31;;;;;;;95.92;43.70;;;;;;;-4.52;80.59;100878.36;2079979;83;21505;-68
2021/12/12 02:20:39;;;;;;;103.53;46.75;;;;;;;-5.04;78.92;100879.64;2082524;83;21057;-68
2021/12/12 02:24:12;;;;;;;89.20;39.95;;;;;;;-5.65;79.01;100887.53;2049278;83;21106;-74
2021/12/12 02:36:46;;;;;;;88.12;37.90;;;;;;;-6.23;80.87;100885.31;2043284;83;21025;-68
2021/12/12 02:39:48;;;;;;;89.97;38.93;;;;;;;-6.17;81.02;100872.23;2081883;83;21066;-69
2021/12/12 02:42:50;;;;;;;94.20;39.70;;;;;;;-6.13;81.15;100861.39;2074627;83;21010;-69
2021/12/12 02:45:55;;;;;;;90.87;41.07;;;;;;;-5.98;81.42;100862.69;2089708;83;22453;-68
2021/12/12 02:49:08;;;;;;;100.27;42.10;;;;;;;-5.78;81.72;100872.41;2073291;82;21048;-71
2021/12/12 02:52:12;;;;;;;93.93;41.23;;;;;;;-5.56;81.98;100882.53;2085885;80;21064;-68
2021/12/12 02:55:20;;;;;;;88.07;39.63;;;;;;;-5.41;82.07;100874.32;2080902;83;21021;-68
2021/12/12 02:58:23;;;;;;;87.45;38.78;;;;;;;-5.30;81.86;100885.61;2083567;83;21032;-67
2021/12/12 03:01:42;;;;;;;87.90;38.70;;;;;;;-5.17;81.95;100895.14;2087797;83;21057;-69
2021/12/12 03:04:44;;;;;;;90.35;39.45;;;;;;;-5.13;81.75;100908.83;2084098;82;21107;-68
2021/12/12 03:07:47;;;;;;;86.93;38.63;;;;;;;-5.15;81.77;100913.19;2081399;82;21041;-68
2021/12/12 03:10:52;;;;;;;90.65;40.95;;;;;;;-5.03;82.06;100922.73;2072581;83;21128;-69
2021/12/12 03:13:54;;;;;;;82.25;36.83;;;;;;;-4.95;82.00;100938.03;2089872;82;21063;-69
2021/12/12 03:16:55;;;;;;;81.00;34.67;;;;;;;-4.92;82.10;100940.52;2084728;83;21067;-68
2021/12/12 03:20:02;;;;;;;57.25;27.40;;;;;;;-4.86;82.35;100939.48;2073913;82;22033;-68
2021/12/12 03:23:29;;;;;;;74.05;30.43;;;;;;;-4.91;82.57;100937.48;2086103;83;21017;-68
2021/12/12 03:26:35;;;;;;;63.63;28.67;;;;;;;-4.91;82.60;100927.12;2080829;82;21061;-68
2021/12/12 03:29:41;;;;;;;56.53;26.52;;;;;;;-4.90;82.73;100937.41;2088567;82;21048;-69
2021/12/12 03:32:43;;;;;;;53.58;24.77;;;;;;;-4.88;82.84;100940.81;2086290;82;21606;-68
2021/12/12 03:35:52;;;;;;;53.52;23.92;;;;;;;-4.88;82.85;100947.73;2080876;82;21056;-68
2021/12/12 03:39:01;;;;;;;44.63;21.65;;;;;;;-4.84;82.96;100959.67;2083259;83;21064;-68
2021/12/12 03:42:07;;;;;;;53.08;23.60;;;;;;;-4.86;83.00;100970.55;2089273;82;21087;-72
2021/12/12 03:45:11;;;;;;;51.00;25.00;;;;;;;-4.82;83.05;100961.77;2095724;82;21097;-68
2021/12/12 03:48:24;;;;;;;48.28;22.95;;;;;;;-4.78;83.08;100965.98;2086269;83;21080;-68
2021/12/12 03:51:29;;;;;;;53.23;24.82;;;;;;;-4.68;83.15;100975.13;2078211;82;21007;-68
2021/12/12 03:54:30;;;;;;;57.62;24.85;;;;;;;-4.66;83.10;100974.64;2090589;82;21045;-72
2021/12/12 03:57:32;;;;;;;48.78;23.85;;;;;;;-4.63;83.09;100986.20;2079092;83;21434;-68
2021/12/12 04:01:12;;;;;;;52.65;22.13;;;;;;;-4.64;83.12;100981.08;2093871;83;21001;-67
2021/12/12 04:04:19;;;;;;;50.73;24.82;;;;;;;-4.61;83.25;100989.59;2089870;82;21088;-71
2021/12/12 04:07:28;;;;;;;56.37;22.58;;;;;;;-4.55;83.41;100993.73;2079308;83;21516;-73
2021/12/12 04:10:30;;;;;;;49.48;22.80;;;;;;;-4.51;83.44;100994.85;2083221;82;21009;-67
2021/12/12 04:13:42;;;;;;;57.35;22.15;;;;;;;-4.42;83.50;101000.64;2084694;83;21104;-68
2021/12/12 04:16:47;;;;;;;44.93;20.17;;;;;;;-4.41;83.50;101006.23;2085244;82;21096;-68
2021/12/12 04:19:53;;;;;;;50.28;23.12;;;;;;;-4.40;83.53;101007.47;2092228;82;21057;-68
2021/12/12 04:22:55;;;;;;;48.75;19.95;;;;;;;-4.32;83.71;101011.11;2087613;82;21036;-67
2021/12/12 04:26:29;;;;;;;49.95;21.48;;;;;;;-4.26;83.70;101011.36;2070622;82;21030;-68
2021/12/12 04:29:35;;;;;;;53.75;23.85;;;;;;;-4.32;83.60;101017.14;2080496;83;21156;-67
2021/12/12 04:32:38;;;;;;;48.83;21.27;;;;;;;-4.29;83.80;101027.40;2079067;83;21023;-67
2021/12/12 04:35:40;;;;;;;52.95;22.37;;;;;;;-4.25;83.82;101022.98;2055235;83;21673;-69
2021/12/12 04:38:41;;;;;;;58.15;23.45;;;;;;;-4.19;83.89;101025.83;2071453;83;21550;-68
2021/12/12 04:41:47;;;;;;;54.75;23.32;;;;;;;-4.15;83.87;101021.77;2090252;83;21389;-67
2021/12/12 04:44:53;;;;;;;57.53;22.62;;;;;;;-4.09;83.91;101018.96;2082107;82;21064;-72
2021/12/12 04:52:00;;;;;;;58.87;24.67;;;;;;;-4.03;83.83;101011.88;2077962;82;21077;-72
2021/12/12 04:55:13;;;;;;;59.63;24.00;;;;;;;-3.90;84.03;101019.19;2058416;83;21560;-68
2021/12/12 04:58:54;;;;;;;48.73;21.27;;;;;;;-3.75;84.19;101025.59;2093943;82;21152;-67
2021/12/12 05:02:06;;;;;;;52.33;20.90;;;;;;;-3.67;83.99;101029.22;2067036;83;21659;-71
2021/12/12 05:05:19;;;;;;;53.15;21.10;;;;;;;-3.77;83.70;101028.70;2087272;83;21124;-68
2021/12/12 05:08:31;;;;;;;49.20;23.02;;;;;;;-3.74;83.83;101021.27;2074710;83;22411;-68
2021/12/12 05:11:53;;;;;;;47.30;20.48;;;;;;;-3.73;83.71;101036.77;2084895;82;21327;-70
2021/12/12 05:15:05;;;;;;;49.33;21.00;;;;;;;-3.76;83.72;101036.87;2084337;83;21076;-69
2021/12/12 05:18:15;;;;;;;53.97;22.60;;;;;;;-3.69;83.81;101038.80;2091910;81;21013;-69
2021/12/12 05:21:26;;;;;;;65.25;20.85;;;;;;;-3.64;83.85;101040.78;2093464;83;21073;-69
2021/12/12 05:24:30;;;;;;;51.13;21.65;;;;;;;-3.54;83.98;101037.43;2096857;83;21049;-70
2021/12/12 05:27:33;;;;;;;51.10;20.60;;;;;;;-3.50;83.82;101037.25;2090687;83;21022;-69
2021/12/12 05:30:36;;;;;;;42.08;20.70;;;;;;;-3.50;83.69;101037.70;2092851;82;21736;-68
2021/12/12 05:33:39;;;;;;;49.58;21.73;;;;;;;-3.46;83.79;101028.92;2087740;83;21101;-68
2021/12/12 05:36:42;;;;;;;51.63;23.87;;;;;;;-3.35;84.01;101037.17;2090129;82;21100;-75
2021/12/12 05:39:46;;;;;;;45.73;21.90;;;;;;;-3.28;83.96;101024.34;2095049;83;21116;-68
2021/12/12 05:42:57;;;;;;;45.00;20.70;;;;;;;-3.21;84.01;101037.94;2066718;82;21481;-68
2021/12/12 05:46:01;;;;;;;128.80;23.05;;;;;;;-3.27;83.66;101045.50;2065975;82;21654;-71
2021/12/12 05:49:06;;;;;;;50.33;22.17;;;;;;;-3.30;83.78;101041.72;2070618;82;21424;-72
2021/12/12 05:52:11;;;;;;;59.70;21.25;;;;;;;-3.27;83.91;101032.52;2094481;82;21072;-70
2021/12/12 05:55:16;;;;;;;45.85;20.80;;;;;;;-3.33;83.81;101034.05;2088651;82;21579;-70
2021/12/12 05:58:21;;;;;;;45.28;21.50;;;;;;;-3.39;83.73;101040.30;2078959;83;21033;-69
2021/12/12 06:01:24;;;;;;;41.35;20.90;;;;;;;-3.40;83.82;101048.16;2088497;82;21049;-69
2021/12/12 06:04:25;;;;;;;52.85;20.80;;;;;;;-3.39;83.90;101049.84;2086262;83;21059;-72
2021/12/12 06:07:28;;;;;;;41.08;19.75;;;;;;;-3.34;83.88;101049.23;2087190;83;21033;-69
2021/12/12 06:10:33;;;;;;;71.95;19.87;;;;;;;-3.29;84.05;101054.27;2084063;83;21603;-69
2021/12/12 06:13:39;;;;;;;44.42;19.98;;;;;;;-3.23;84.11;101048.84;2072689;82;21123;-68
2021/12/12 06:16:41;;;;;;;48.48;19.75;;;;;;;-3.24;83.91;101054.50;2085389;82;21065;-69
2021/12/12 06:19:45;;;;;;;43.55;19.40;;;;;;;-3.19;83.95;101064.23;2085173;82;21392;-70
2021/12/12 06:22:48;;;;;;;49.80;20.15;;;;;;;-3.17;83.93;101057.70;2090604;82;21014;-73
2021/12/12 06:25:51;;;;;;;37.70;18.85;;;;;;;-3.16;83.92;101060.23;2079666;83;21067;-73
2021/12/12 06:28:53;;;;;;;75.03;22.17;;;;;;;-3.11;83.98;101070.45;2081377;82;21582;-69
2021/12/12 06:31:55;;;;;;;49.35;20.48;;;;;;;-3.06;84.09;101073.73;2084222;83;21009;-68
2021/12/12 06:34:58;;;;;;;48.42;19.42;;;;;;;-2.99;84.16;101082.14;2078874;82;21103;-68
2021/12/12 06:38:08;;;;;;;71.25;20.70;;;;;;;-2.98;83.91;101089.05;2088035;83;21099;-68
2021/12/12 06:41:10;;;;;;;53.48;19.62;;;;;;;-3.02;83.77;101086.15;2081025;83;21495;-69
2021/12/12 06:44:13;;;;;;;48.70;20.92;;;;;;;-3.02;83.68;101091.34;2095607;82;21037;-68
2021/12/12 06:47:18;;;;;;;50.10;21.23;;;;;;;-3.01;83.79;101091.30;2081462;82;21080;-69
2021/12/12 06:50:21;;;;;;;66.85;21.35;;;;;;;-3.01;83.66;101087.86;2084750;82;21107;-71
2021/12/12 06:53:26;;;;;;;42.30;18.73;;;;;;;-3.02;83.75;101092.64;2088284;83;21111;-69
2021/12/12 06:56:30;;;;;;;56.02;21.30;;;;;;;-3.12;83.41;101100.39;2088776;82;21060;-69
2021/12/12 06:59:35;;;;;;;44.63;19.48;;;;;;;-3.14;83.66;101101.73;2100107;82;20996;-71
2021/12/12 07:02:37;;;;;;;57.05;20.60;;;;;;;-3.14;83.66;101110.81;2085027;83;21578;-72
2021/12/12 07:05:39;;;;;;;47.90;21.55;;;;;;;-3.12;83.74;101112.07;2068358;83;21639;-74
2021/12/12 07:08:41;;;;;;;48.90;19.95;;;;;;;-3.10;83.69;101123.23;2077573;83;21120;-72
2021/12/12 07:11:44;;;;;;;47.73;20.05;;;;;;;-3.11;83.59;101126.73;2089877;82;21106;-75
2021/12/12 07:14:46;;;;;;;53.08;22.35;;;;;;;-3.07;83.72;101137.39;2098319;82;21048;-70
2021/12/12 07:17:51;;;;;;;44.20;21.17;;;;;;;-3.04;83.72;101138.16;2043423;82;21057;-71
2021/12/12 07:20:57;;;;;;;55.30;22.27;;;;;;;-3.04;83.69;101130.36;2087447;82;21063;-68
2021/12/12 07:24:03;;;;;;;47.95;20.90;;;;;;;-3.00;83.73;101125.90;2077119;82;21060;-70
2021/12/12 07:27:06;;;;;;;58.87;21.82;;;;;;;-2.99;83.64;101132.31;2055527;83;21124;-70
2021/12/12 07:30:10;;;;;;;45.60;21.85;;;;;;;-3.00;83.44;101137.59;2089116;83;21092;-70
2021/12/12 07:33:13;;;;;;;55.35;23.25;;;;;;;-3.08;83.38;101138.31;2090835;82;21167;-76
2021/12/12 07:36:18;;;;;;;57.88;23.57;;;;;;;-3.01;83.67;101144.99;2076403;82;21084;-78
2021/12/12 07:39:22;;;;;;;48.05;20.92;;;;;;;-2.99;83.67;101142.70;2090131;83;21098;-74
2021/12/12 07:42:25;;;;;;;49.95;21.10;;;;;;;-3.02;83.50;101136.78;2072447;83;21037;-79
2021/12/12 07:45:27;;;;;;;61.42;31.87;;;;;;;-3.01;83.59;101139.34;2079847;82;21002;-75
2021/12/12 07:48:29;;;;;;;43.02;21.68;;;;;;;-2.95;83.63;101146.91;2083147;82;21040;-74
2021/12/12 07:51:31;;;;;;;52.78;23.92;;;;;;;-2.85;83.72;101150.45;2088884;83;20974;-72
2021/12/12 07:54:34;;;;;;;40.55;20.70;;;;;;;-2.82;83.63;101155.08;2073677;83;21584;-80
2021/12/12 07:57:36;;;;;;;42.62;20.37;;;;;;;-2.79;83.53;101152.41;2085766;82;20977;-71
2021/12/12 08:00:46;;;;;;;46.30;21.23;;;;;;;-2.77;83.37;101159.66;2072337;83;21004;-79
2021/12/12 08:03:47;;;;;;;44.93;20.37;;;;;;;-2.72;83.38;101161.64;2074995;82;21114;-73
2021/12/12 08:06:50;;;;;;;43.65;20.77;;;;;;;-2.65;83.32;101160.95;2077741;83;21041;-74
2021/12/12 08:09:52;;;;;;;56.77;21.35;;;;;;;-2.63;83.30;101157.86;2073523;82;21154;-71
2021/12/12 08:12:55;;;;;;;49.45;20.88;;;;;;;-2.66;83.19;101154.08;2080552;83;21386;-71
2021/12/12 08:16:00;;;;;;;58.00;21.80;;;;;;;-2.59;83.24;101159.88;2087490;82;21064;-75
2021/12/12 08:19:03;;;;;;;51.75;21.57;;;;;;;-2.60;83.10;101160.34;2092929;83;21083;-76
2021/12/12 08:22:08;;;;;;;53.78;21.97;;;;;;;-2.56;83.16;101155.86;2062848;83;22573;-77
2021/12/12 08:25:13;;;;;;;52.50;24.30;;;;;;;-2.57;82.98;101158.92;2087749;82;21190;-81
2021/12/12 08:28:18;;;;;;;51.05;22.22;;;;;;;-2.59;83.09;101163.78;2057513;82;21018;-75
2021/12/12 08:31:19;;;;;;;49.85;23.32;;;;;;;-2.54;83.12;101166.60;2091119;82;21020;-74
2021/12/12 08:34:21;;;;;;;55.08;24.77;;;;;;;-2.55;83.08;101162.77;2049077;83;21089;-78
2021/12/12 08:37:28;;;;;;;71.97;25.85;;;;;;;-2.47;83.29;101163.80;2091155;82;21000;-79
2021/12/12 08:40:35;;;;;;;55.55;24.00;;;;;;;-2.37;83.24;101172.46;2096026;83;21583;-77
2021/12/12 08:43:39;;;;;;;79.10;25.05;;;;;;;-2.24;83.24;101176.75;2074003;82;21076;-82
2021/12/12 08:46:46;;;;;;;60.50;26.15;;;;;;;-2.16;83.02;101169.50;2090746;82;20997;-79
2021/12/12 08:49:49;;;;;;;67.78;30.90;;;;;;;-2.07;83.13;101169.59;2089835;83;21067;-83
2021/12/12 08:52:53;;;;;;;91.15;34.85;;;;;;;-1.99;82.97;101169.30;2075390;83;21072;-79
2021/12/12 08:55:58;;;;;;;76.10;31.45;;;;;;;-2.08;82.59;101165.31;2075102;82;21085;-81
2021/12/12 08:59:01;;;;;;;65.00;29.25;;;;;;;-2.00;82.77;101156.72;2071112;83;21059;-80
2021/12/12 09:02:08;;;;;;;62.70;29.67;;;;;;;-1.96;82.71;101160.91;2084384;83;22205;-83
2021/12/12 09:05:16;;;;;;;66.35;30.82;;;;;;;-1.87;82.67;101162.30;2088346;82;21151;-84
2021/12/12 09:08:45;;;;;;;54.85;24.43;;;;;;;-1.80;82.71;101166.36;2092268;83;21355;-81
2021/12/12 09:12:10;;;;;;;54.80;23.60;;;;;;;-1.71;82.55;101172.94;2082674;82;21063;-78
2021/12/12 09:15:23;;;;;;;73.60;25.15;;;;;;;-1.76;82.21;101164.47;2073800;82;21559;-86
2021/12/12 09:18:33;;;;;;;64.77;26.75;;;;;;;-1.70;82.21;101172.02;2083674;83;21041;-80
2021/12/12 09:21:50;;;;;;;59.88;26.77;;;;;;;-1.75;82.05;101170.05;2081952;83;21492;-83
2021/12/12 09:25:00;;;;;;;50.60;26.40;;;;;;;-1.70;82.33;101176.77;2078794;83;21091;-81
2021/12/12 09:28:23;;;;;;;54.27;22.65;;;;;;;-1.65;82.13;101180.03;2082580;82;21075;-82
2021/12/12 09:31:34;;;;;;;65.32;24.92;;;;;;;-1.71;81.76;101183.35;2089910;83;21056;-80
2021/12/12 09:34:56;;;;;;;50.63;24.97;;;;;;;-1.71;81.75;101185.49;2094037;82;21041;-79
2021/12/12 09:38:28;;;;;;;58.35;25.23;;;;;;;-1.69;81.78;101181.51;2086372;83;21011;-80
2021/12/12 09:42:12;;;;;;;77.78;27.42;;;;;;;-1.61;81.97;101184.65;2084374;83;21213;-78
2021/12/12 09:45:49;;;;;;;65.25;27.20;;;;;;;-1.52;81.74;101167.38;2069079;83;20967;-77
2021/12/12 09:52:57;;;;;;;82.55;34.63;;;;;;;-1.44;81.60;101158.76;2088823;82;21438;-75
2021/12/12 09:56:06;;;;;;;83.27;32.53;;;;;;;-1.48;81.31;101156.37;2090837;83;21544;-79
2021/12/12 09:59:50;;;;;;;71.12;30.12;;;;;;;-1.51;81.40;101156.04;2084250;83;21065;-73
2021/12/12 10:03:15;;;;;;;72.20;29.27;;;;;;;-1.53;81.39;101151.34;2065892;82;21069;-73
2021/12/12 10:06:50;;;;;;;74.00;31.15;;;;;;;-1.52;81.22;101137.44;2079165;83;21524;-77
2021/12/12 10:10:05;;;;;;;85.75;32.78;;;;;;;-1.53;81.13;101135.72;2090259;82;21042;-76
2021/12/12 10:13:15;;;;;;;76.35;32.20;;;;;;;-1.60;81.00;101144.26;2078241;82;21016;-78
2021/12/12 10:16:40;;;;;;;66.85;29.05;;;;;;;-1.56;81.13;101139.76;2081776;82;21044;-79
2021/12/12 10:19:48;;;;;;;63.45;27.73;;;;;;;-1.51;81.14;101136.52;2069039;83;20989;-77
2021/12/12 10:23:33;;;;;;;58.70;28.52;;;;;;;-1.45;80.87;101131.05;2082434;83;21481;-77
2021/12/12 10:26:44;;;;;;;73.15;27.40;;;;;;;-1.29;81.30;101129.10;2073429;82;21045;-81
2021/12/12 10:30:17;;;;;;;74.50;28.47;;;;;;;-1.22;80.74;101124.00;2084071;82;21048;-75
2021/12/12 10:33:53;;;;;;;61.85;28.15;;;;;;;-1.15;80.79;101115.86;2078533;83;21105;-77
2021/12/12 10:37:08;;;;;;;65.60;29.55;;;;;;;-1.09;80.54;101117.34;2088749;82;21520;-82
2021/12/12 10:40:21;;;;;;;93.70;32.03;;;;;;;-1.07;80.57;101117.27;2080688;83;21010;-79
2021/12/12 10:43:43;;;;;;;71.65;30.90;;;;;;;-0.93;80.69;101122.70;2086937;83;21071;-80
2021/12/12 10:47:11;;;;;;;73.97;31.80;;;;;;;-0.86;80.59;101117.62;2082511;83;21627;-76
2021/12/12 10:50:18;;;;;;;87.40;37.23;;;;;;;-0.65;80.97;101113.17;2070482;82;21124;-78
2021/12/12 10:53:51;;;;;;;81.65;35.58;;;;;;;-0.34;80.91;101118.27;2087793;83;21005;-81
2021/12/12 10:57:10;;;;;;;86.80;38.58;;;;;;;-0.13;80.65;101106.82;2085346;83;21028;-82
2021/12/12 11:00:22;;;;;;;72.97;34.60;;;;;;;0.07;80.47;101103.70;2079658;83;21114;-77
2021/12/12 11:03:40;;;;;;;81.02;37.65;;;;;;;0.24;80.24;101096.34;2075960;82;21059;-82
2021/12/12 11:07:02;;;;;;;95.42;36.70;;;;;;;0.33;79.70;101097.17;2065955;83;21022;-79
2021/12/12 11:10:27;;;;;;;91.37;39.38;;;;;;;0.20;78.96;101098.27;2085667;83;21164;-83
2021/12/12 11:13:40;;;;;;;94.50;43.92;;;;;;;0.21;79.51;101095.56;2078784;83;21037;-74
2021/12/12 11:16:59;;;;;;;104.40;47.15;;;;;;;0.32;79.36;101091.58;2072953;82;21576;-79
2021/12/12 11:20:22;;;;;;;135.70;65.00;;;;;;;0.40;79.47;101088.97;2086764;83;21877;-77
2021/12/12 11:23:52;;;;;;;106.50;51.08;;;;;;;0.41;79.39;101084.12;2073176;83;21183;-78
2021/12/12 11:27:12;;;;;;;96.50;44.27;;;;;;;0.52;79.28;101077.52;2074705;83;22323;-75
2021/12/12 11:30:21;;;;;;;107.22;51.70;;;;;;;0.44;78.70;101085.27;2079143;82;21140;-76
2021/12/12 11:33:26;;;;;;;107.95;49.90;;;;;;;0.47;78.91;101090.80;2086451;82;21025;-66
2021/12/12 11:36:37;;;;;;;119.05;52.13;;;;;;;0.51;79.32;101090.16;2086388;82;21278;-76
2021/12/12 11:40:05;;;;;;;107.00;50.63;;;;;;;0.81;80.19;101089.05;2089940;83;21100;-76
2021/12/12 11:43:39;;;;;;;120.82;56.02;;;;;;;0.87;78.90;101088.28;2058846;82;21627;-75
2021/12/12 11:47:09;;;;;;;105.83;52.38;;;;;;;0.80;78.72;101091.30;2082992;82;21092;-74
2021/12/12 11:50:55;;;;;;;115.12;53.10;;;;;;;0.78;78.81;101093.12;2062159;83;21009;-75
2021/12/12 11:54:12;;;;;;;101.78;48.33;;;;;;;0.77;78.82;101092.30;2071999;83;21065;-75
2021/12/12 11:57:21;;;;;;;134.55;64.00;;;;;;;0.74;78.77;101091.62;2085996;82;21073;-77
2021/12/12 12:00:33;;;;;;;152.60;68.65;;;;;;;0.79;79.05;101091.76;2066899;81;21045;-77
2021/12/12 12:03:57;;;;;;;137.03;61.40;;;;;;;0.83;78.88;101084.13;2066247;83;21147;-76
2021/12/12 12:07:12;;;;;;;131.05;60.15;;;;;;;0.82;78.64;101085.53;2077221;82;21041;-76
2021/12/12 12:10:51;;;;;;;112.85;54.55;;;;;;;0.74;78.61;101095.06;2084153;82;21102;-77
2021/12/12 12:14:30;;;;;;;124.97;53.50;;;;;;;0.71;78.75;101087.39;2050203;82;24462;-77
2021/12/12 12:18:24;;;;;;;110.75;47.83;;;;;;;0.57;78.16;101087.27;2086983;82;21013;-77
2021/12/12 12:21:31;;;;;;;95.38;43.50;;;;;;;0.35;78.34;101092.27;2076812;82;21021;-78
2021/12/12 12:24:42;;;;;;;;;;;;;;;0.30;78.58;101083.81;2087021;83;21111;-76
2021/12/12 12:27:50;;;;;;;67.65;36.55;;;;;;;0.39;78.73;101090.33;2079796;82;20980;-75
2021/12/12 12:31:39;;;;;;;59.38;31.17;;;;;;;0.39;78.75;101092.48;2093735;82;21099;-74
2021/12/12 12:35:21;;;;;;;62.90;33.75;;;;;;;0.45;78.61;101091.33;2056944;83;21113;-76
2021/12/12 12:39:06;;;;;;;61.13;31.82;;;;;;;0.40;78.34;101102.02;2085075;82;21551;-72
2021/12/12 12:43:04;;;;;;;70.62;36.10;;;;;;;0.36;78.32;101091.33;2081387;83;21002;-73
2021/12/12 12:46:52;;;;;;;71.45;37.90;;;;;;;0.32;78.32;101085.05;2086392;82;20955;-73
2021/12/12 12:50:42;;;;;;;78.35;37.95;;;;;;;0.27;78.23;101085.74;2081159;82;21060;-77
2021/12/12 12:54:10;;;;;;;64.25;34.78;;;;;;;0.21;78.19;101078.59;2071899;83;21049;-73
2021/12/12 12:57:26;;;;;;;63.70;36.13;;;;;;;0.17;78.25;101078.81;2088398;83;21049;-75
2021/12/12 13:00:30;;;;;;;61.75;33.40;;;;;;;0.14;78.30;101078.97;2095375;82;21072;-74
2021/12/12 13:03:41;;;;;;;52.58;29.87;;;;;;;0.16;78.37;101077.98;2097468;82;21145;-73
2021/12/12 13:07:16;;;;;;;54.40;28.60;;;;;;;0.16;78.19;101078.44;2074108;82;21060;-75
2021/12/12 13:10:24;;;;;;;52.53;28.40;;;;;;;0.16;78.23;101079.75;2079127;82;21032;-74
2021/12/12 13:13:57;;;;;;;55.00;27.58;;;;;;;0.17;78.34;101077.08;2086776;83;21532;-74
2021/12/12 13:17:56;;;;;;;57.70;30.80;;;;;;;0.10;78.31;101076.98;2063397;82;21141;-74
2021/12/12 13:21:28;;;;;;;58.78;32.38;;;;;;;0.08;78.17;101076.20;2083571;82;21121;-73
2021/12/12 13:24:35;;;;;;;;;;;;;;;0.14;78.52;101077.66;2085818;83;21573;-74
2021/12/12 13:28:18;;;;;;;62.90;32.50;;;;;;;0.14;78.40;101075.05;2083175;82;20099;-73
2021/12/12 13:31:36;;;;;;;57.98;32.10;;;;;;;0.11;78.42;101080.43;2073195;82;21084;-73
2021/12/12 13:35:04;;;;;;;60.35;32.13;;;;;;;0.11;78.52;101077.82;2084036;82;21036;-73
2021/12/12 13:38:44;;;;;;;57.15;31.27;;;;;;;0.09;78.64;101082.30;2088795;83;21056;-76
2021/12/12 13:42:15;;;;;;;60.10;32.13;;;;;;;0.13;78.67;101082.52;2089430;83;21056;-72
2021/12/12 13:45:36;;;;;;;66.60;33.85;;;;;;;0.19;78.66;101082.20;2084682;83;21485;-81
2021/12/12 13:49:10;;;;;;;;;;;;;;;0.43;80.59;101083.58;2091230;82;21091;-78
2021/12/12 13:52:56;;;;;;;64.62;32.17;;;;;;;0.52;79.35;101080.13;2087775;83;20206;-73
2021/12/12 13:56:22;;;;;;;63.13;32.73;;;;;;;0.53;78.83;101084.41;2084304;83;21516;-74
2021/12/12 13:59:32;;;;;;;68.07;33.75;;;;;;;0.43;78.73;101087.97;2067453;82;21151;-72
2021/12/12 14:02:39;;;;;;;63.75;33.40;;;;;;;0.44;78.74;101094.87;2094393;83;21052;-76
2021/12/12 14:05:45;;;;;;;69.90;35.75;;;;;;;0.47;78.80;101093.88;2090520;82;21080;-72
2021/12/12 14:08:58;;;;;;;69.05;34.70;;;;;;;0.47;78.63;101096.02;2092586;82;21061;-74
2021/12/12 14:12:01;;;;;;;70.90;34.50;;;;;;;0.37;78.53;101093.51;2093073;83;21038;-74
2021/12/12 14:15:21;;;;;;;66.02;34.70;;;;;;;0.28;78.49;101097.39;2070935;83;21137;-72
2021/12/12 14:18:25;;;;;;;68.95;35.58;;;;;;;0.20;78.49;101106.09;2086210;82;21065;-76
2021/12/12 14:21:27;;;;;;;72.08;36.68;;;;;;;0.10;78.49;101103.55;2086905;82;21045;-73
2021/12/12 14:24:32;;;;;;;70.08;35.92;;;;;;;-0.01;78.54;101103.61;2084673;82;22302;-73
2021/12/12 14:27:36;;;;;;;73.05;36.73;;;;;;;-0.07;78.61;101101.77;2078854;82;20973;-77
2021/12/12 14:30:41;;;;;;;80.83;38.17;;;;;;;-0.16;78.65;101093.92;2078414;83;21472;-80
2021/12/12 14:33:48;;;;;;;81.40;37.80;;;;;;;-0.23;78.58;101092.52;2078046;83;21127;-77
2021/12/12 14:36:51;;;;;;;84.42;41.18;;;;;;;-0.34;78.60;101086.97;2089729;82;21049;-75
2021/12/12 14:39:53;;;;;;;74.03;38.78;;;;;;;-0.45;78.58;101091.42;2093695;83;21009;-75
2021/12/12 14:43:03;;;;;;;75.85;38.00;;;;;;;-0.60;78.63;101085.14;2081475;83;21059;-73
2021/12/12 14:46:18;;;;;;;78.40;37.90;;;;;;;-0.67;78.69;101092.88;2085846;83;20986;-74
2021/12/12 14:49:28;;;;;;;80.10;40.00;;;;;;;-0.77;78.64;101092.90;2076769;82;21017;-78
2021/12/12 14:52:33;;;;;;;65.67;32.33;;;;;;;-0.94;78.54;101107.53;2070627;82;21156;-78
2021/12/12 14:56:00;;;;;;;60.35;31.05;;;;;;;-1.12;78.62;101096.65;2073076;82;21001;-72